createdAt,value
2022-08-16T00:00:38.751Z,2.20
2022-08-16T00:05:48.322Z,3.58
2022-08-16T00:10:50.373Z,2.78
2022-08-16T00:15:54.315Z,4.18
2022-08-16T00:20:55.927Z,4.18
2022-08-16T00:26:36.686Z,3.90
2022-08-16T00:31:19.788Z,3.17
2022-08-16T00:36:25.790Z,3.10
2022-08-16T00:41:30.311Z,3.38
2022-08-16T00:47:08.559Z,3.13
2022-08-16T00:52:29.700Z,3.25
2022-08-16T00:57:55.522Z,2.88
2022-08-16T01:02:52.664Z,3.70
2022-08-16T01:07:55.328Z,3.42
2022-08-16T01:12:57.003Z,6.05
2022-08-16T01:18:05.954Z,2.72
2022-08-16T01:23:21.532Z,5.13
2022-08-16T01:28:23.375Z,5.35
2022-08-16T01:33:33.286Z,3.30
2022-08-16T01:38:48.859Z,5.07
2022-08-16T01:43:54.798Z,3.58
2022-08-16T01:49:01.285Z,3.60
2022-08-16T01:54:03.229Z,3.30
2022-08-16T01:59:08.066Z,4.97
2022-08-16T02:04:48.032Z,5.03
2022-08-16T02:09:41.140Z,3.97
2022-08-16T02:14:43.578Z,5.28
2022-08-16T02:19:58.816Z,6.00
2022-08-16T02:25:10.683Z,4.05
2022-08-16T02:30:37.628Z,4.45
2022-08-16T02:35:53.724Z,5.63
2022-08-16T02:40:57.719Z,4.80
2022-08-16T02:51:10.240Z,4.68
2022-08-16T02:56:15.574Z,4.55
2022-08-16T03:01:25.103Z,4.22
2022-08-16T03:06:42.768Z,6.68
2022-08-16T03:11:44.772Z,4.30
2022-08-16T03:16:58.753Z,4.65
2022-08-16T03:22:01.319Z,5.38
2022-08-16T03:27:03.698Z,4.22
2022-08-16T03:32:07.892Z,4.55
2022-08-16T03:37:09.281Z,4.88
2022-08-16T03:42:10.647Z,4.35
2022-08-16T03:47:12.047Z,4.82
2022-08-16T03:52:13.697Z,4.55
2022-08-16T03:57:17.853Z,5.30
2022-08-16T04:02:22.299Z,5.80
2022-08-16T04:07:24.638Z,5.93
2022-08-16T04:12:53.200Z,5.28
2022-08-16T04:17:47.719Z,6.60
2022-08-16T04:22:49.980Z,5.65
2022-08-16T04:27:54.145Z,5.72
2022-08-16T04:32:57.332Z,6.20
2022-08-16T04:43:22.192Z,6.40
2022-08-16T04:48:28.392Z,7.23
2022-08-16T04:53:34.201Z,6.53
2022-08-16T04:58:46.089Z,6.10
2022-08-16T05:03:59.950Z,5.65
2022-08-16T05:09:03.239Z,7.05
2022-08-16T05:14:06.770Z,7.03
2022-08-16T05:19:11.501Z,7.75
2022-08-16T05:24:13.389Z,7.63
2022-08-16T05:29:15.335Z,6.50
2022-08-16T05:34:21.200Z,8.73
2022-08-16T05:39:25.313Z,11.85
2022-08-16T05:44:27.183Z,8.27
2022-08-16T05:49:38.657Z,7.90
2022-08-16T05:54:47.292Z,7.97
2022-08-16T05:59:50.559Z,7.85
2022-08-16T06:05:02.197Z,10.10
2022-08-16T06:10:04.995Z,10.73
2022-08-16T06:15:14.904Z,9.95
2022-08-16T06:20:24.179Z,7.68
2022-08-16T06:25:36.353Z,7.60
2022-08-16T06:30:43.320Z,7.60
2022-08-16T06:35:46.990Z,8.50
2022-08-16T06:40:50.933Z,7.80
2022-08-16T06:45:52.989Z,6.43
2022-08-16T06:50:54.381Z,7.38
2022-08-16T06:55:58.635Z,9.35
2022-08-16T07:01:04.682Z,7.40
2022-08-16T07:06:11.498Z,7.90
2022-08-16T07:11:14.416Z,8.68
2022-08-16T07:16:17.275Z,6.68
2022-08-16T07:21:22.501Z,7.50
2022-08-16T07:26:25.862Z,6.63
2022-08-16T07:36:41.219Z,6.47
2022-08-16T07:41:46.826Z,6.75
2022-08-16T07:46:55.590Z,5.50
2022-08-16T07:51:57.828Z,5.65
2022-08-16T07:56:59.159Z,6.20
2022-08-16T08:02:00.701Z,5.25
2022-08-16T08:07:02.359Z,5.38
2022-08-16T08:12:10.263Z,4.38
2022-08-16T08:17:43.183Z,4.95
2022-08-16T08:22:47.022Z,4.35
2022-08-16T08:27:50.629Z,7.22
2022-08-16T08:33:00.924Z,4.75
2022-08-16T08:38:03.428Z,4.90
2022-08-16T08:43:18.325Z,5.22
2022-08-16T08:48:35.140Z,4.20
2022-08-16T08:53:38.284Z,5.25
2022-08-16T08:58:40.380Z,6.20
2022-08-16T09:03:56.622Z,3.75
2022-08-16T09:08:59.814Z,4.85
2022-08-16T09:14:01.275Z,3.65
2022-08-16T09:19:02.694Z,3.13
2022-08-16T09:24:09.816Z,3.78
2022-08-16T09:29:15.049Z,4.30
2022-08-16T09:34:19.443Z,3.47
2022-08-16T09:39:21.601Z,4.07
2022-08-16T09:45:12.351Z,3.08
2022-08-16T09:49:50.953Z,4.72
2022-08-16T09:54:54.056Z,3.30
2022-08-16T09:59:56.278Z,4.40
2022-08-16T10:04:58.793Z,3.88
2022-08-16T10:10:00.234Z,3.45
2022-08-16T10:15:02.106Z,3.93
2022-08-16T10:20:04.245Z,4.65
2022-08-16T10:25:07.506Z,3.60
2022-08-16T10:30:25.858Z,2.83
2022-08-16T10:35:32.590Z,3.10
2022-08-16T10:40:34.370Z,3.55
2022-08-16T10:45:36.905Z,2.85
2022-08-16T10:50:39.142Z,6.32
2022-08-16T10:55:44.217Z,2.00
2022-08-16T11:00:47.212Z,3.40
2022-08-16T11:06:06.115Z,2.20
2022-08-16T11:11:12.893Z,2.23
2022-08-16T11:17:02.209Z,2.92
2022-08-16T11:27:23.527Z,5.47
2022-08-16T11:32:31.539Z,1.92
2022-08-16T11:38:05.874Z,2.00
2022-08-16T11:42:58.390Z,1.40
2022-08-16T11:48:00.317Z,1.52
2022-08-16T11:53:03.785Z,2.13
2022-08-16T11:58:08.429Z,1.70
2022-08-16T12:03:13.773Z,2.00
2022-08-16T12:08:16.211Z,1.60
2022-08-16T12:13:19.724Z,2.10
2022-08-16T12:18:23.615Z,2.22
2022-08-16T12:23:25.012Z,1.55
2022-08-16T12:28:36.783Z,2.28
2022-08-16T12:33:48.261Z,1.45
2022-08-16T12:38:55.477Z,2.30
2022-08-16T12:44:01.337Z,1.95
2022-08-16T12:49:05.631Z,2.30
2022-08-16T12:54:09.568Z,1.63
2022-08-16T12:59:13.925Z,2.05
2022-08-16T13:04:24.893Z,2.65
2022-08-16T13:09:28.873Z,2.03
2022-08-16T13:14:37.998Z,1.40
2022-08-16T13:20:05.997Z,2.22
2022-08-16T13:25:01.556Z,2.95
2022-08-16T13:30:11.344Z,1.95
2022-08-16T13:35:26.542Z,2.15
2022-08-16T13:40:35.854Z,3.15
2022-08-16T13:45:37.309Z,2.35
2022-08-16T13:50:51.342Z,2.25
2022-08-16T13:55:57.845Z,2.15
2022-08-16T14:01:01.813Z,2.13
2022-08-16T14:06:03.453Z,1.75
2022-08-16T14:11:05.542Z,1.50
2022-08-16T14:16:23.610Z,1.40
2022-08-16T14:21:25.700Z,2.78
2022-08-16T14:26:27.062Z,1.73
2022-08-16T14:31:30.940Z,1.20
2022-08-16T14:36:33.427Z,1.70
2022-08-16T14:41:34.757Z,1.60
2022-08-16T14:46:39.099Z,1.30
2022-08-16T14:51:40.568Z,1.90
2022-08-16T14:56:46.661Z,1.45
2022-08-16T15:01:59.359Z,1.83
2022-08-16T15:07:01.432Z,2.35
2022-08-16T15:12:08.247Z,1.63
2022-08-16T15:17:37.001Z,1.10
2022-08-16T15:22:50.945Z,2.78
2022-08-16T15:27:55.045Z,2.25
2022-08-16T15:33:06.933Z,2.85
2022-08-16T15:38:09.809Z,1.73
2022-08-16T15:43:39.334Z,0.98
2022-08-16T15:48:41.629Z,1.67
2022-08-16T15:53:44.537Z,1.67
2022-08-16T15:58:57.393Z,1.80
2022-08-16T16:03:59.762Z,1.83
2022-08-16T16:09:01.349Z,3.15
2022-08-16T16:14:03.045Z,1.73
2022-08-16T16:19:08.777Z,1.92
2022-08-16T16:24:21.544Z,1.33
2022-08-16T16:29:25.182Z,1.90
2022-08-16T16:34:32.369Z,2.03
2022-08-16T16:39:37.039Z,1.13
2022-08-16T16:44:38.508Z,1.60
2022-08-16T16:49:53.119Z,2.15
2022-08-16T16:54:56.224Z,2.60
2022-08-16T16:59:57.680Z,1.85
2022-08-16T17:05:00.007Z,2.50
2022-08-16T17:10:03.507Z,2.13
2022-08-16T17:15:07.323Z,1.55
2022-08-16T17:20:12.807Z,2.03
2022-08-16T17:25:14.586Z,2.13
2022-08-16T17:30:29.349Z,1.35
2022-08-16T17:35:55.684Z,1.20
2022-08-16T17:40:59.337Z,12.93
2022-08-16T17:46:01.584Z,2.70
2022-08-16T17:51:05.346Z,2.17
2022-08-16T17:56:06.968Z,1.10
2022-08-16T18:01:08.431Z,5.17
2022-08-16T18:06:12.531Z,5.15
2022-08-16T18:11:17.987Z,2.10
2022-08-16T18:16:19.708Z,1.98
2022-08-16T18:21:40.661Z,2.27
2022-08-16T18:26:41.992Z,2.70
2022-08-16T18:31:43.766Z,3.00
2022-08-16T18:36:45.148Z,3.53
2022-08-16T18:41:47.773Z,2.80
2022-08-16T18:46:50.720Z,4.10
2022-08-16T18:51:57.051Z,4.20
2022-08-16T18:56:58.595Z,3.38
2022-08-16T19:02:05.110Z,3.47
2022-08-16T19:07:07.106Z,5.25
2022-08-16T19:12:08.706Z,3.78
2022-08-16T19:17:11.245Z,5.18
2022-08-16T19:27:14.343Z,3.88
2022-08-16T19:32:21.160Z,5.03
2022-08-16T19:37:23.627Z,5.00
2022-08-16T19:42:27.989Z,5.95
2022-08-16T19:47:29.612Z,3.97
2022-08-16T19:52:31.934Z,4.30
2022-08-16T19:57:34.423Z,4.40
2022-08-16T20:02:43.752Z,5.43
2022-08-16T20:07:54.392Z,5.82
2022-08-16T20:13:02.538Z,4.57
2022-08-16T20:18:04.521Z,4.30
2022-08-16T20:23:25.753Z,4.40
2022-08-16T20:28:51.713Z,5.20
2022-08-16T20:33:49.242Z,3.70
2022-08-16T20:38:51.708Z,4.50
2022-08-16T20:43:55.157Z,5.45
2022-08-16T20:48:58.837Z,5.45
2022-08-16T20:54:00.307Z,4.15
2022-08-16T20:59:01.650Z,7.18
2022-08-16T21:04:03.102Z,5.32
2022-08-16T21:09:04.966Z,4.63
2022-08-16T21:14:10.704Z,2.13
2022-08-16T21:19:12.542Z,4.38
2022-08-16T21:24:14.120Z,3.20
2022-08-16T21:29:15.607Z,3.60
2022-08-16T21:34:21.347Z,8.43
2022-08-16T21:39:25.639Z,4.90
2022-08-16T21:44:34.373Z,4.05
2022-08-16T21:49:40.504Z,5.20
2022-08-16T21:55:05.641Z,7.22
2022-08-16T22:00:29.091Z,3.30
2022-08-16T22:05:38.199Z,4.05
2022-08-16T22:11:07.034Z,5.88
2022-08-16T22:16:09.882Z,4.07
2022-08-16T22:21:11.249Z,6.00
2022-08-16T22:26:18.203Z,7.55
2022-08-16T22:31:31.058Z,3.35
2022-08-16T22:36:36.626Z,4.10
2022-08-16T22:41:44.284Z,3.58
2022-08-16T22:46:49.084Z,3.22
2022-08-16T22:51:50.485Z,3.40
2022-08-16T22:56:58.678Z,2.70
2022-08-16T23:02:02.592Z,5.05
2022-08-16T23:07:08.969Z,5.65
2022-08-16T23:12:11.423Z,5.13
2022-08-16T23:17:12.746Z,5.40
2022-08-16T23:22:16.535Z,3.65
2022-08-16T23:27:18.938Z,3.17
2022-08-16T23:32:20.285Z,3.85
2022-08-16T23:37:21.774Z,3.58
2022-08-16T23:42:52.993Z,3.47
2022-08-16T23:47:44.781Z,3.47
2022-08-16T23:53:07.038Z,4.38
2022-08-16T23:58:09.791Z,3.50
